メインページ
METAR-TAF:

METAR-TAF

空港 :

ドゥシャンベ, タジキスタン

ドゥシャンベ空港

緯度: 38-33N, 経度: 068-47E, 海抜: 803m

現時点の気象観測

当レポートは31分前の20:30(UTC)に作成
変向風 2kt
気温 17°C
湿度 48%
気圧 1016 hPa
視程10km以上
高度6600ftの雲はほとんどない, 積乱雲.
高度11000ftの曇り

METAR: UTDD 292030Z VRB01MPS 9999 FEW066CB OVC110 17/06 Q1016 R09/D NOSIG RMK QFE693/0925

時間: 02:01 (21:01 UTC)

予報

当レポートは3時間1分前の18:00(UTC)に作成
予報は29日の 19時(UTC)から 30日の 07時(UTC)まで有効
変向風 4kt
視程: 3000m
高度1000ftの雲は散在している
高度4000ftの千切れ雲あり, 積乱雲.
29日の 19時(UTC)から 30日の 07時(UTC)まで一時的に
西の風 19kt、最大29ktの突風を伴う
視程: 1000m
激しい雷雨, 雨, 靄

TAF: UTDD 291800Z 2919/3007 VRB02MPS 3000 BR SCT010 BKN040CB TEMPO 2919/3007 27010G15MPS 1000 TSRA BR

4,000以上の空港の気象観測と天気予報(METAR報とTAF報)

利用可能な観測所は地図上に黄色い丸と赤い丸で示す。

丸の上にカーソルを重ねると観測所名を参照できる。

次にクリックすると気象観測と天気予報を参照できる。

マップの切り替え:黒色「×」印の緑ボタンをクリックして拡大、「-」印の緑ボタンをクリックして縮小、緑色の三角印をクリックして隣りの地図に切り替え


METAR-TAF: